Yosemite National Park, California
Current Conditions -  °F | °C
As of 3:17 PM on Wednesday 17 Dec 2014 (Local Time) from KMMH Reporting Station
Scattered Clouds Scattered Clouds  
Wind Chill: 32°   Ceiling: Unl
Heat Index: 32°   Visibility: 10mi
Dew Point: 25°   Wind: 3mph
Humidity: 75%   Direction: 100°E
Pressure: 29.97"   Gusts: NA
Location:  37.6076°N, 119.603°W
Report Text: KMMH 172317Z 10003KT 10SM SCT070 00/M04 A2997 RMK SLP STATION PRESSURE 2298
Loading
Personal Weather Stations






























Interactive Weather Map New forecast layout! Learn more

10-Day Weather Forecast

Advertisements
Track Severe Weather on mobile